sensor_id;sensor_type;location;lat;lon;timestamp;temperature;humidity
68789;DHT22;55773;54.444;18.376;2022-07-29T00:02:00;12.01;87.16
68789;DHT22;55773;54.444;18.376;2022-07-29T00:04:26;11.99;88.19
68789;DHT22;55773;54.444;18.376;2022-07-29T00:06:51;12.01;87.95
68789;DHT22;55773;54.444;18.376;2022-07-29T00:09:17;11.97;88.02
68789;DHT22;55773;54.444;18.376;2022-07-29T00:11:42;11.88;87.19
68789;DHT22;55773;54.444;18.376;2022-07-29T00:14:08;11.97;87.60
68789;DHT22;55773;54.444;18.376;2022-07-29T00:16:33;11.95;88.06
68789;DHT22;55773;54.444;18.376;2022-07-29T00:18:59;11.93;87.98
68789;DHT22;55773;54.444;18.376;2022-07-29T00:21:24;11.90;87.76
68789;DHT22;55773;54.444;18.376;2022-07-29T00:23:50;11.94;87.51
68789;DHT22;55773;54.444;18.376;2022-07-29T00:26:15;11.95;86.91
68789;DHT22;55773;54.444;18.376;2022-07-29T00:28:43;11.88;87.60
68789;DHT22;55773;54.444;18.376;2022-07-29T00:31:09;11.88;87.83
68789;DHT22;55773;54.444;18.376;2022-07-29T00:33:34;11.90;87.52
68789;DHT22;55773;54.444;18.376;2022-07-29T00:35:59;11.88;87.31
68789;DHT22;55773;54.444;18.376;2022-07-29T00:38:25;11.87;87.78
68789;DHT22;55773;54.444;18.376;2022-07-29T00:40:50;11.84;87.65
68789;DHT22;55773;54.444;18.376;2022-07-29T00:43:16;11.85;87.29
68789;DHT22;55773;54.444;18.376;2022-07-29T00:45:42;11.84;87.38
68789;DHT22;55773;54.444;18.376;2022-07-29T00:48:07;11.85;87.07
68789;DHT22;55773;54.444;18.376;2022-07-29T00:50:35;11.87;86.82
68789;DHT22;55773;54.444;18.376;2022-07-29T00:53:02;11.83;86.67
68789;DHT22;55773;54.444;18.376;2022-07-29T00:55:31;11.73;87.13
68789;DHT22;55773;54.444;18.376;2022-07-29T00:57:56;11.70;86.64
68789;DHT22;55773;54.444;18.376;2022-07-29T01:00:23;11.66;86.93
68789;DHT22;55773;54.444;18.376;2022-07-29T01:02:51;11.62;87.35
68789;DHT22;55773;54.444;18.376;2022-07-29T01:05:18;11.59;87.27
68789;DHT22;55773;54.444;18.376;2022-07-29T01:07:43;11.52;87.46
68789;DHT22;55773;54.444;18.376;2022-07-29T01:10:09;11.47;87.81
68789;DHT22;55773;54.444;18.376;2022-07-29T01:12:35;11.44;87.72
68789;DHT22;55773;54.444;18.376;2022-07-29T01:15:02;11.44;87.55
68789;DHT22;55773;54.444;18.376;2022-07-29T01:25:45;11.39;89.96
68789;DHT22;55773;54.444;18.376;2022-07-29T01:31:00;11.44;88.27
68789;DHT22;55773;54.444;18.376;2022-07-29T01:33:27;11.52;88.50
68789;DHT22;55773;54.444;18.376;2022-07-29T01:36:13;11.54;87.89
68789;DHT22;55773;54.444;18.376;2022-07-29T01:38:39;11.56;88.00
68789;DHT22;55773;54.444;18.376;2022-07-29T01:41:07;11.54;88.62
68789;DHT22;55773;54.444;18.376;2022-07-29T01:43:36;11.52;88.87
68789;DHT22;55773;54.444;18.376;2022-07-29T01:46:08;11.46;89.01
68789;DHT22;55773;54.444;18.376;2022-07-29T01:51:47;11.50;88.09
68789;DHT22;55773;54.444;18.376;2022-07-29T01:53:50;11.54;87.45
68789;DHT22;55773;54.444;18.376;2022-07-29T01:56:18;11.54;87.22
68789;DHT22;55773;54.444;18.376;2022-07-29T01:58:44;11.57;87.39
68789;DHT22;55773;54.444;18.376;2022-07-29T02:01:10;11.59;87.47
68789;DHT22;55773;54.444;18.376;2022-07-29T02:03:37;11.59;87.66
68789;DHT22;55773;54.444;18.376;2022-07-29T02:06:04;11.53;87.98
68789;DHT22;55773;54.444;18.376;2022-07-29T02:08:33;11.47;88.17
68789;DHT22;55773;54.444;18.376;2022-07-29T02:10:59;11.47;87.74
68789;DHT22;55773;54.444;18.376;2022-07-29T02:13:25;11.52;87.70
68789;DHT22;55773;54.444;18.376;2022-07-29T02:15:51;11.47;86.87
68789;DHT22;55773;54.444;18.376;2022-07-29T02:18:18;11.47;87.27
68789;DHT22;55773;54.444;18.376;2022-07-29T02:20:44;11.50;87.22
68789;DHT22;55773;54.444;18.376;2022-07-29T02:23:11;11.44;86.87
68789;DHT22;55773;54.444;18.376;2022-07-29T02:25:38;11.33;87.83
68789;DHT22;55773;54.444;18.376;2022-07-29T02:28:05;11.33;88.06
68789;DHT22;55773;54.444;18.376;2022-07-29T02:30:30;11.33;88.27
68789;DHT22;55773;54.444;18.376;2022-07-29T02:32:56;11.40;87.77
68789;DHT22;55773;54.444;18.376;2022-07-29T02:35:22;11.43;87.72
68789;DHT22;55773;54.444;18.376;2022-07-29T02:37:48;11.37;87.96
68789;DHT22;55773;54.444;18.376;2022-07-29T02:40:38;11.30;88.54
68789;DHT22;55773;54.444;18.376;2022-07-29T02:43:03;11.26;88.45
68789;DHT22;55773;54.444;18.376;2022-07-29T02:45:30;11.32;88.46
68789;DHT22;55773;54.444;18.376;2022-07-29T02:47:56;11.33;88.20
68789;DHT22;55773;54.444;18.376;2022-07-29T02:50:28;11.37;88.09
68789;DHT22;55773;54.444;18.376;2022-07-29T02:53:02;11.43;88.31
68789;DHT22;55773;54.444;18.376;2022-07-29T02:55:33;11.43;88.73
68789;DHT22;55773;54.444;18.376;2022-07-29T02:58:03;11.50;88.09
68789;DHT22;55773;54.444;18.376;2022-07-29T03:00:34;11.52;88.86
68789;DHT22;55773;54.444;18.376;2022-07-29T03:03:02;11.54;88.64
68789;DHT22;55773;54.444;18.376;2022-07-29T03:05:28;11.56;87.66
68789;DHT22;55773;54.444;18.376;2022-07-29T03:07:58;11.50;89.36
68789;DHT22;55773;54.444;18.376;2022-07-29T03:10:25;11.43;89.87
68789;DHT22;55773;54.444;18.376;2022-07-29T03:12:51;11.43;90.98
68789;DHT22;55773;54.444;18.376;2022-07-29T03:15:16;11.47;91.75
68789;DHT22;55773;54.444;18.376;2022-07-29T03:17:42;11.59;93.11
68789;DHT22;55773;54.444;18.376;2022-07-29T03:20:08;11.66;92.84
68789;DHT22;55773;54.444;18.376;2022-07-29T03:22:38;11.80;91.86
68789;DHT22;55773;54.444;18.376;2022-07-29T03:25:08;11.91;91.45
68789;DHT22;55773;54.444;18.376;2022-07-29T03:27:34;11.99;92.31
68789;DHT22;55773;54.444;18.376;2022-07-29T03:30:02;12.02;91.98
68789;DHT22;55773;54.444;18.376;2022-07-29T03:32:27;12.01;91.83
68789;DHT22;55773;54.444;18.376;2022-07-29T03:34:53;12.02;91.84
68789;DHT22;55773;54.444;18.376;2022-07-29T03:37:18;12.06;91.01
68789;DHT22;55773;54.444;18.376;2022-07-29T03:39:43;12.14;90.45
68789;DHT22;55773;54.444;18.376;2022-07-29T03:42:10;12.29;90.69
68789;DHT22;55773;54.444;18.376;2022-07-29T03:44:36;12.38;91.33
68789;DHT22;55773;54.444;18.376;2022-07-29T03:47:02;12.46;89.51
68789;DHT22;55773;54.444;18.376;2022-07-29T03:49:29;12.50;89.05
68789;DHT22;55773;54.444;18.376;2022-07-29T03:51:56;12.52;88.00
68789;DHT22;55773;54.444;18.376;2022-07-29T03:54:21;12.55;88.23
68789;DHT22;55773;54.444;18.376;2022-07-29T03:56:47;12.62;88.15
68789;DHT22;55773;54.444;18.376;2022-07-29T03:59:14;12.72;89.43
68789;DHT22;55773;54.444;18.376;2022-07-29T04:01:40;12.84;89.42
68789;DHT22;55773;54.444;18.376;2022-07-29T04:04:06;12.93;89.94
68789;DHT22;55773;54.444;18.376;2022-07-29T04:06:42;13.03;89.78
68789;DHT22;55773;54.444;18.376;2022-07-29T04:09:08;13.12;89.62
68789;DHT22;55773;54.444;18.376;2022-07-29T04:11:33;13.18;89.26
68789;DHT22;55773;54.444;18.376;2022-07-29T04:14:00;13.30;89.72
68789;DHT22;55773;54.444;18.376;2022-07-29T04:16:26;13.37;88.54
68789;DHT22;55773;54.444;18.376;2022-07-29T04:18:51;13.49;88.12
68789;DHT22;55773;54.444;18.376;2022-07-29T04:21:17;13.68;87.55
68789;DHT22;55773;54.444;18.376;2022-07-29T04:23:42;13.95;89.09
68789;DHT22;55773;54.444;18.376;2022-07-29T04:26:10;14.27;88.87
68789;DHT22;55773;54.444;18.376;2022-07-29T04:28:35;14.67;88.28
68789;DHT22;55773;54.444;18.376;2022-07-29T04:31:01;14.99;88.19
68789;DHT22;55773;54.444;18.376;2022-07-29T04:33:26;15.26;89.28
68789;DHT22;55773;54.444;18.376;2022-07-29T04:35:52;15.39;88.24
68789;DHT22;55773;54.444;18.376;2022-07-29T04:38:17;15.65;88.44
68789;DHT22;55773;54.444;18.376;2022-07-29T04:40:43;15.58;87.41
68789;DHT22;55773;54.444;18.376;2022-07-29T04:43:08;15.49;88.38
68789;DHT22;55773;54.444;18.376;2022-07-29T04:45:34;15.27;88.11
68789;DHT22;55773;54.444;18.376;2022-07-29T04:47:59;15.33;89.36
68789;DHT22;55773;54.444;18.376;2022-07-29T04:50:25;15.36;89.24
68789;DHT22;55773;54.444;18.376;2022-07-29T04:52:50;15.46;89.57
68789;DHT22;55773;54.444;18.376;2022-07-29T04:55:16;15.53;90.30
68789;DHT22;55773;54.444;18.376;2022-07-29T04:57:41;15.54;89.87
68789;DHT22;55773;54.444;18.376;2022-07-29T05:00:07;15.61;89.40
68789;DHT22;55773;54.444;18.376;2022-07-29T05:02:33;15.68;88.66
68789;DHT22;55773;54.444;18.376;2022-07-29T05:04:58;15.67;90.17
68789;DHT22;55773;54.444;18.376;2022-07-29T05:07:23;15.65;89.32
68789;DHT22;55773;54.444;18.376;2022-07-29T05:09:51;15.63;89.59
68789;DHT22;55773;54.444;18.376;2022-07-29T05:12:18;15.64;89.50
68789;DHT22;55773;54.444;18.376;2022-07-29T05:14:43;15.75;89.54
68789;DHT22;55773;54.444;18.376;2022-07-29T05:17:08;15.94;89.20
68789;DHT22;55773;54.444;18.376;2022-07-29T05:19:34;16.26;89.41
68789;DHT22;55773;54.444;18.376;2022-07-29T05:21:59;16.41;88.08
68789;DHT22;55773;54.444;18.376;2022-07-29T05:24:25;16.41;87.89
68789;DHT22;55773;54.444;18.376;2022-07-29T05:26:50;16.56;88.44
68789;DHT22;55773;54.444;18.376;2022-07-29T05:29:15;16.72;87.35
68789;DHT22;55773;54.444;18.376;2022-07-29T05:31:41;16.81;87.13
68789;DHT22;55773;54.444;18.376;2022-07-29T05:34:09;16.81;85.78
68789;DHT22;55773;54.444;18.376;2022-07-29T05:36:37;16.64;85.41
68789;DHT22;55773;54.444;18.376;2022-07-29T05:39:02;16.62;85.52
68789;DHT22;55773;54.444;18.376;2022-07-29T05:41:31;16.84;86.14
68789;DHT22;55773;54.444;18.376;2022-07-29T05:43:56;16.99;85.73
68789;DHT22;55773;54.444;18.376;2022-07-29T05:46:22;17.14;85.45
68789;DHT22;55773;54.444;18.376;2022-07-29T05:48:47;17.28;85.50
68789;DHT22;55773;54.444;18.376;2022-07-29T05:51:12;17.14;82.09
68789;DHT22;55773;54.444;18.376;2022-07-29T05:53:41;17.28;82.48
68789;DHT22;55773;54.444;18.376;2022-07-29T05:56:09;17.21;79.82
68789;DHT22;55773;54.444;18.376;2022-07-29T05:58:35;17.41;80.44
68789;DHT22;55773;54.444;18.376;2022-07-29T06:01:03;17.27;78.27
68789;DHT22;55773;54.444;18.376;2022-07-29T06:03:28;17.61;79.83
68789;DHT22;55773;54.444;18.376;2022-07-29T06:05:54;17.66;77.33
68789;DHT22;55773;54.444;18.376;2022-07-29T06:08:19;17.62;77.99
68789;DHT22;55773;54.444;18.376;2022-07-29T06:10:45;17.82;77.21
68789;DHT22;55773;54.444;18.376;2022-07-29T06:13:10;17.78;75.75
68789;DHT22;55773;54.444;18.376;2022-07-29T06:15:36;18.06;74.93
68789;DHT22;55773;54.444;18.376;2022-07-29T06:18:04;18.10;73.46
68789;DHT22;55773;54.444;18.376;2022-07-29T06:20:34;18.11;74.76
68789;DHT22;55773;54.444;18.376;2022-07-29T06:22:59;18.33;73.98
68789;DHT22;55773;54.444;18.376;2022-07-29T06:25:25;18.28;72.83
68789;DHT22;55773;54.444;18.376;2022-07-29T06:27:50;18.36;72.29
68789;DHT22;55773;54.444;18.376;2022-07-29T06:30:16;18.34;72.40
68789;DHT22;55773;54.444;18.376;2022-07-29T06:32:41;18.07;73.29
68789;DHT22;55773;54.444;18.376;2022-07-29T06:35:07;18.14;73.96
68789;DHT22;55773;54.444;18.376;2022-07-29T06:37:34;18.37;73.51
68789;DHT22;55773;54.444;18.376;2022-07-29T06:40:00;18.61;73.13
68789;DHT22;55773;54.444;18.376;2022-07-29T06:42:44;18.66;70.31
68789;DHT22;55773;54.444;18.376;2022-07-29T06:45:10;18.41;70.83
68789;DHT22;55773;54.444;18.376;2022-07-29T06:47:35;18.40;70.58
68789;DHT22;55773;54.444;18.376;2022-07-29T06:50:01;18.69;69.96
68789;DHT22;55773;54.444;18.376;2022-07-29T06:52:26;18.92;69.83
68789;DHT22;55773;54.444;18.376;2022-07-29T06:54:51;19.15;69.75
68789;DHT22;55773;54.444;18.376;2022-07-29T06:57:17;19.28;67.57
68789;DHT22;55773;54.444;18.376;2022-07-29T06:59:42;19.31;68.07
68789;DHT22;55773;54.444;18.376;2022-07-29T07:02:07;19.07;68.04
68789;DHT22;55773;54.444;18.376;2022-07-29T07:04:33;19.30;67.11
68789;DHT22;55773;54.444;18.376;2022-07-29T07:06:58;19.44;66.68
68789;DHT22;55773;54.444;18.376;2022-07-29T07:09:24;19.41;66.01
68789;DHT22;55773;54.444;18.376;2022-07-29T07:11:50;19.67;66.03
68789;DHT22;55773;54.444;18.376;2022-07-29T07:14:15;19.85;65.04
68789;DHT22;55773;54.444;18.376;2022-07-29T07:16:41;20.05;64.36
68789;DHT22;55773;54.444;18.376;2022-07-29T07:19:06;19.70;64.93
68789;DHT22;55773;54.444;18.376;2022-07-29T07:21:32;19.28;65.07
68789;DHT22;55773;54.444;18.376;2022-07-29T07:23:58;19.33;64.84
68789;DHT22;55773;54.444;18.376;2022-07-29T07:26:24;19.26;65.67
68789;DHT22;55773;54.444;18.376;2022-07-29T07:28:49;19.03;66.91
68789;DHT22;55773;54.444;18.376;2022-07-29T07:31:14;18.81;65.54
68789;DHT22;55773;54.444;18.376;2022-07-29T07:33:40;18.94;67.33
68789;DHT22;55773;54.444;18.376;2022-07-29T07:36:05;19.40;64.68
68789;DHT22;55773;54.444;18.376;2022-07-29T07:38:31;19.84;64.82
68789;DHT22;55773;54.444;18.376;2022-07-29T07:40:56;19.89;62.71
68789;DHT22;55773;54.444;18.376;2022-07-29T07:43:21;19.34;64.39
68789;DHT22;55773;54.444;18.376;2022-07-29T07:45:47;19.30;64.95
68789;DHT22;55773;54.444;18.376;2022-07-29T07:48:13;19.27;64.91
68789;DHT22;55773;54.444;18.376;2022-07-29T07:50:38;19.54;64.62
68789;DHT22;55773;54.444;18.376;2022-07-29T07:53:03;19.77;62.30
68789;DHT22;55773;54.444;18.376;2022-07-29T07:55:29;19.74;62.17
68789;DHT22;55773;54.444;18.376;2022-07-29T07:57:55;19.74;62.31
68789;DHT22;55773;54.444;18.376;2022-07-29T08:00:20;19.78;61.09
68789;DHT22;55773;54.444;18.376;2022-07-29T08:02:46;19.74;61.05
68789;DHT22;55773;54.444;18.376;2022-07-29T08:05:12;19.78;63.62
68789;DHT22;55773;54.444;18.376;2022-07-29T08:07:41;20.11;63.40
68789;DHT22;55773;54.444;18.376;2022-07-29T08:10:07;20.21;63.11
68789;DHT22;55773;54.444;18.376;2022-07-29T08:12:32;19.98;61.11
68789;DHT22;55773;54.444;18.376;2022-07-29T08:14:58;19.82;61.67
68789;DHT22;55773;54.444;18.376;2022-07-29T08:17:23;19.68;61.74
68789;DHT22;55773;54.444;18.376;2022-07-29T08:19:49;19.70;62.50
68789;DHT22;55773;54.444;18.376;2022-07-29T08:22:14;19.55;62.77
68789;DHT22;55773;54.444;18.376;2022-07-29T08:24:40;19.74;63.10
68789;DHT22;55773;54.444;18.376;2022-07-29T08:27:11;20.18;62.64
68789;DHT22;55773;54.444;18.376;2022-07-29T08:29:37;20.36;60.38
68789;DHT22;55773;54.444;18.376;2022-07-29T08:32:05;20.64;60.91
68789;DHT22;55773;54.444;18.376;2022-07-29T08:34:31;20.61;60.65
68789;DHT22;55773;54.444;18.376;2022-07-29T08:36:57;20.26;60.21
68789;DHT22;55773;54.444;18.376;2022-07-29T08:39:23;20.23;62.49
68789;DHT22;55773;54.444;18.376;2022-07-29T08:41:48;20.40;62.46
68789;DHT22;55773;54.444;18.376;2022-07-29T08:44:16;20.67;61.89
68789;DHT22;55773;54.444;18.376;2022-07-29T08:46:42;20.28;63.06
68789;DHT22;55773;54.444;18.376;2022-07-29T08:49:07;19.95;63.46
68789;DHT22;55773;54.444;18.376;2022-07-29T08:51:33;19.92;63.00
68789;DHT22;55773;54.444;18.376;2022-07-29T08:54:00;20.13;63.51
68789;DHT22;55773;54.444;18.376;2022-07-29T08:56:26;20.69;60.82
68789;DHT22;55773;54.444;18.376;2022-07-29T08:58:52;21.18;59.48
68789;DHT22;55773;54.444;18.376;2022-07-29T09:01:20;21.34;58.30
68789;DHT22;55773;54.444;18.376;2022-07-29T09:03:46;21.05;60.03
68789;DHT22;55773;54.444;18.376;2022-07-29T09:06:17;20.98;59.79
68789;DHT22;55773;54.444;18.376;2022-07-29T09:08:42;20.97;60.41
68789;DHT22;55773;54.444;18.376;2022-07-29T09:11:08;21.42;60.05
68789;DHT22;55773;54.444;18.376;2022-07-29T09:13:35;21.28;59.98
68789;DHT22;55773;54.444;18.376;2022-07-29T09:16:00;20.92;59.79
68789;DHT22;55773;54.444;18.376;2022-07-29T09:18:38;20.46;59.58
68789;DHT22;55773;54.444;18.376;2022-07-29T09:21:05;19.85;61.24
68789;DHT22;55773;54.444;18.376;2022-07-29T09:24:08;19.94;63.00
68789;DHT22;55773;54.444;18.376;2022-07-29T09:26:37;20.87;60.89
68789;DHT22;55773;54.444;18.376;2022-07-29T09:29:21;21.35;57.89
68789;DHT22;55773;54.444;18.376;2022-07-29T09:31:48;21.55;58.84
68789;DHT22;55773;54.444;18.376;2022-07-29T09:34:15;21.69;57.35
68789;DHT22;55773;54.444;18.376;2022-07-29T09:36:45;22.13;56.37
68789;DHT22;55773;54.444;18.376;2022-07-29T09:39:11;22.28;55.00
68789;DHT22;55773;54.444;18.376;2022-07-29T09:41:50;21.97;55.07
68789;DHT22;55773;54.444;18.376;2022-07-29T09:44:17;21.53;56.70
68789;DHT22;55773;54.444;18.376;2022-07-29T09:49:18;20.64;57.92
68789;DHT22;55773;54.444;18.376;2022-07-29T09:51:43;21.39;56.94
68789;DHT22;55773;54.444;18.376;2022-07-29T09:54:22;21.50;56.32
68789;DHT22;55773;54.444;18.376;2022-07-29T09:56:48;20.80;56.43
68789;DHT22;55773;54.444;18.376;2022-07-29T09:59:13;20.53;58.57
68789;DHT22;55773;54.444;18.376;2022-07-29T10:01:39;20.92;55.72
68789;DHT22;55773;54.444;18.376;2022-07-29T10:04:04;21.08;54.20
68789;DHT22;55773;54.444;18.376;2022-07-29T10:06:30;21.25;54.35
68789;DHT22;55773;54.444;18.376;2022-07-29T10:09:06;21.79;52.97
68789;DHT22;55773;54.444;18.376;2022-07-29T10:11:31;21.89;52.38
68789;DHT22;55773;54.444;18.376;2022-07-29T10:13:57;21.59;50.79
68789;DHT22;55773;54.444;18.376;2022-07-29T10:16:22;21.55;53.34
68789;DHT22;55773;54.444;18.376;2022-07-29T10:18:48;22.06;53.98
68789;DHT22;55773;54.444;18.376;2022-07-29T10:21:13;22.25;49.02
68789;DHT22;55773;54.444;18.376;2022-07-29T10:23:39;22.66;49.67
68789;DHT22;55773;54.444;18.376;2022-07-29T10:26:04;22.33;48.64
68789;DHT22;55773;54.444;18.376;2022-07-29T10:28:31;22.28;47.84
68789;DHT22;55773;54.444;18.376;2022-07-29T10:31:04;22.43;48.30
68789;DHT22;55773;54.444;18.376;2022-07-29T10:36:18;22.33;45.33
68789;DHT22;55773;54.444;18.376;2022-07-29T10:44:14;22.10;43.99
68789;DHT22;55773;54.444;18.376;2022-07-29T10:46:39;21.76;45.23
68789;DHT22;55773;54.444;18.376;2022-07-29T10:57:14;21.90;42.50
68789;DHT22;55773;54.444;18.376;2022-07-29T10:59:40;21.76;43.54
68789;DHT22;55773;54.444;18.376;2022-07-29T11:07:16;21.86;42.26
68789;DHT22;55773;54.444;18.376;2022-07-29T11:09:42;22.25;43.58
68789;DHT22;55773;54.444;18.376;2022-07-29T11:14:55;22.43;41.36
68789;DHT22;55773;54.444;18.376;2022-07-29T11:17:21;22.47;40.32
68789;DHT22;55773;54.444;18.376;2022-07-29T11:19:48;22.49;43.38
68789;DHT22;55773;54.444;18.376;2022-07-29T11:25:12;22.68;39.61
68789;DHT22;55773;54.444;18.376;2022-07-29T11:27:38;22.20;39.84
68789;DHT22;55773;54.444;18.376;2022-07-29T11:30:04;21.90;41.10
68789;DHT22;55773;54.444;18.376;2022-07-29T11:32:36;21.97;40.73
68789;DHT22;55773;54.444;18.376;2022-07-29T11:37:37;22.40;40.98
68789;DHT22;55773;54.444;18.376;2022-07-29T11:50:00;22.52;38.95
68789;DHT22;55773;54.444;18.376;2022-07-29T11:52:40;22.04;39.33
68789;DHT22;55773;54.444;18.376;2022-07-29T11:55:11;22.31;39.13
68789;DHT22;55773;54.444;18.376;2022-07-29T11:57:38;22.55;39.12
68789;DHT22;55773;54.444;18.376;2022-07-29T12:00:10;22.59;40.66
68789;DHT22;55773;54.444;18.376;2022-07-29T12:02:41;22.93;40.22
68789;DHT22;55773;54.444;18.376;2022-07-29T12:05:09;23.06;39.95
68789;DHT22;55773;54.444;18.376;2022-07-29T12:07:38;23.19;37.97
68789;DHT22;55773;54.444;18.376;2022-07-29T12:10:04;23.34;39.19
68789;DHT22;55773;54.444;18.376;2022-07-29T12:12:29;23.39;39.59
68789;DHT22;55773;54.444;18.376;2022-07-29T12:14:55;23.46;39.93
68789;DHT22;55773;54.444;18.376;2022-07-29T12:17:27;23.65;38.45
68789;DHT22;55773;54.444;18.376;2022-07-29T12:19:53;23.16;38.73
68789;DHT22;55773;54.444;18.376;2022-07-29T12:22:34;22.58;39.40
68789;DHT22;55773;54.444;18.376;2022-07-29T12:27:31;22.81;39.53
68789;DHT22;55773;54.444;18.376;2022-07-29T12:30:03;22.88;39.60
68789;DHT22;55773;54.444;18.376;2022-07-29T12:34:58;22.77;41.26
68789;DHT22;55773;54.444;18.376;2022-07-29T12:37:24;22.98;39.96
68789;DHT22;55773;54.444;18.376;2022-07-29T12:39:49;22.61;40.51
68789;DHT22;55773;54.444;18.376;2022-07-29T12:42:15;22.37;40.50
68789;DHT22;55773;54.444;18.376;2022-07-29T12:44:47;22.35;42.27
68789;DHT22;55773;54.444;18.376;2022-07-29T12:47:14;22.55;40.42
68789;DHT22;55773;54.444;18.376;2022-07-29T12:49:39;22.52;42.60
68789;DHT22;55773;54.444;18.376;2022-07-29T12:52:24;22.73;40.30
68789;DHT22;55773;54.444;18.376;2022-07-29T12:54:50;22.61;41.36
68789;DHT22;55773;54.444;18.376;2022-07-29T12:57:15;22.76;39.46
68789;DHT22;55773;54.444;18.376;2022-07-29T12:59:40;22.72;40.98
68789;DHT22;55773;54.444;18.376;2022-07-29T13:02:06;22.85;39.95
68789;DHT22;55773;54.444;18.376;2022-07-29T13:04:32;22.99;41.90
68789;DHT22;55773;54.444;18.376;2022-07-29T13:06:59;22.85;39.08
68789;DHT22;55773;54.444;18.376;2022-07-29T13:09:35;22.58;40.61
68789;DHT22;55773;54.444;18.376;2022-07-29T13:12:01;22.52;40.90
68789;DHT22;55773;54.444;18.376;2022-07-29T13:17:26;21.86;41.92
68789;DHT22;55773;54.444;18.376;2022-07-29T13:20:15;21.85;40.86
68789;DHT22;55773;54.444;18.376;2022-07-29T13:22:42;21.75;43.22
68789;DHT22;55773;54.444;18.376;2022-07-29T13:25:12;21.80;42.12
68789;DHT22;55773;54.444;18.376;2022-07-29T13:27:37;21.35;42.07
68789;DHT22;55773;54.444;18.376;2022-07-29T13:30:04;21.43;43.98
68789;DHT22;55773;54.444;18.376;2022-07-29T13:32:30;20.87;44.03
68789;DHT22;55773;54.444;18.376;2022-07-29T13:34:56;20.92;45.35
68789;DHT22;55773;54.444;18.376;2022-07-29T13:37:22;20.71;46.18
68789;DHT22;55773;54.444;18.376;2022-07-29T13:39:47;20.59;46.46
68789;DHT22;55773;54.444;18.376;2022-07-29T13:42:13;20.84;45.13
68789;DHT22;55773;54.444;18.376;2022-07-29T13:44:39;21.02;46.63
68789;DHT22;55773;54.444;18.376;2022-07-29T13:47:05;21.75;47.15
68789;DHT22;55773;54.444;18.376;2022-07-29T13:49:36;21.41;46.82
68789;DHT22;55773;54.444;18.376;2022-07-29T13:52:02;21.22;48.59
68789;DHT22;55773;54.444;18.376;2022-07-29T13:54:28;21.46;48.08
68789;DHT22;55773;54.444;18.376;2022-07-29T13:56:53;21.59;47.76
68789;DHT22;55773;54.444;18.376;2022-07-29T13:59:19;21.52;48.02
68789;DHT22;55773;54.444;18.376;2022-07-29T14:01:44;21.67;47.83
68789;DHT22;55773;54.444;18.376;2022-07-29T14:04:10;21.77;47.36
68789;DHT22;55773;54.444;18.376;2022-07-29T14:06:35;21.75;47.50
68789;DHT22;55773;54.444;18.376;2022-07-29T14:09:01;22.11;44.93
68789;DHT22;55773;54.444;18.376;2022-07-29T14:11:26;21.79;45.23
68789;DHT22;55773;54.444;18.376;2022-07-29T14:13:52;21.60;45.80
68789;DHT22;55773;54.444;18.376;2022-07-29T14:16:17;21.38;48.17
68789;DHT22;55773;54.444;18.376;2022-07-29T14:18:43;21.90;45.07
68789;DHT22;55773;54.444;18.376;2022-07-29T14:21:08;21.92;46.07
68789;DHT22;55773;54.444;18.376;2022-07-29T14:23:34;21.92;44.32
68789;DHT22;55773;54.444;18.376;2022-07-29T14:25:59;21.87;45.14
68789;DHT22;55773;54.444;18.376;2022-07-29T14:28:25;21.87;43.49
68789;DHT22;55773;54.444;18.376;2022-07-29T14:30:50;22.16;44.96
68789;DHT22;55773;54.444;18.376;2022-07-29T14:33:16;22.14;46.13
68789;DHT22;55773;54.444;18.376;2022-07-29T14:35:41;21.70;46.67
68789;DHT22;55773;54.444;18.376;2022-07-29T14:38:06;21.72;43.32
68789;DHT22;55773;54.444;18.376;2022-07-29T14:40:32;21.25;46.27
68789;DHT22;55773;54.444;18.376;2022-07-29T14:43:00;21.12;46.12
68789;DHT22;55773;54.444;18.376;2022-07-29T14:45:26;21.12;44.03
68789;DHT22;55773;54.444;18.376;2022-07-29T14:47:53;21.14;44.55
68789;DHT22;55773;54.444;18.376;2022-07-29T14:50:18;21.55;47.88
68789;DHT22;55773;54.444;18.376;2022-07-29T14:52:44;23.05;48.33
